createdAt,value
2017-10-16T00:00:52.730Z,17.30
2017-10-16T00:03:20.582Z,17.20
2017-10-16T00:05:48.343Z,18.43
2017-10-16T00:08:15.864Z,26.33
2017-10-16T00:10:43.384Z,20.53
2017-10-16T00:13:11.243Z,13.93
2017-10-16T00:15:38.803Z,15.70
2017-10-16T00:18:06.363Z,20.27
2017-10-16T00:20:35.262Z,17.60
2017-10-16T00:23:02.795Z,16.13
2017-10-16T00:25:30.419Z,20.92
2017-10-16T00:27:57.984Z,24.92
2017-10-16T00:30:25.535Z,19.65
2017-10-16T00:32:53.082Z,24.45
2017-10-16T00:35:20.710Z,20.50
2017-10-16T00:37:48.240Z,18.13
2017-10-16T00:40:15.768Z,20.90
2017-10-16T00:42:43.387Z,18.80
2017-10-16T00:45:10.919Z,24.40
2017-10-16T00:47:38.448Z,18.15
2017-10-16T00:50:06.283Z,28.85
2017-10-16T00:52:33.843Z,17.25
2017-10-16T00:55:01.385Z,21.37
2017-10-16T00:57:28.994Z,21.33
2017-10-16T00:59:56.611Z,19.75
2017-10-16T01:02:24.166Z,19.75
2017-10-16T01:04:51.939Z,18.35
2017-10-16T01:07:19.491Z,24.05
2017-10-16T01:09:47.057Z,17.98
2017-10-16T01:12:14.795Z,19.58
2017-10-16T01:14:42.373Z,19.20
2017-10-16T01:17:09.930Z,17.95
2017-10-16T01:19:37.883Z,22.33
2017-10-16T01:22:05.460Z,24.17
2017-10-16T01:24:33.020Z,17.15
2017-10-16T01:27:00.683Z,19.45
2017-10-16T01:29:28.216Z,25.83
2017-10-16T01:31:55.749Z,19.37
2017-10-16T01:34:23.356Z,16.55
2017-10-16T01:36:50.948Z,17.73
2017-10-16T01:39:18.499Z,25.15
2017-10-16T01:41:46.075Z,18.87
2017-10-16T01:44:13.611Z,18.08
2017-10-16T01:46:41.153Z,23.58
2017-10-16T01:49:09.104Z,18.20
2017-10-16T01:51:36.681Z,19.87
2017-10-16T01:54:04.239Z,20.83
2017-10-16T01:56:31.928Z,20.95
2017-10-16T01:58:59.457Z,21.45
2017-10-16T02:01:26.992Z,20.45
2017-10-16T02:03:54.578Z,24.30
2017-10-16T02:06:22.110Z,22.87
2017-10-16T02:08:49.635Z,25.95
2017-10-16T02:11:17.256Z,21.20
2017-10-16T02:13:44.783Z,21.58
2017-10-16T02:16:12.324Z,28.77
2017-10-16T02:18:40.015Z,20.20
2017-10-16T02:21:07.539Z,20.80
2017-10-16T02:23:35.100Z,17.77
2017-10-16T02:26:02.918Z,16.58
2017-10-16T02:28:30.486Z,23.67
2017-10-16T02:30:58.035Z,22.45
2017-10-16T02:33:25.809Z,32.03
2017-10-16T02:35:53.358Z,16.02
2017-10-16T02:38:20.918Z,22.05
2017-10-16T02:40:48.664Z,17.17
2017-10-16T02:43:16.235Z,29.12
2017-10-16T02:45:43.800Z,24.33
2017-10-16T02:48:11.461Z,20.15
2017-10-16T02:50:38.985Z,20.37
2017-10-16T02:53:06.582Z,19.95
2017-10-16T02:55:34.324Z,19.75
2017-10-16T02:58:01.940Z,29.55
2017-10-16T03:00:29.479Z,19.05
2017-10-16T03:02:57.063Z,21.70
2017-10-16T03:05:24.600Z,20.40
2017-10-16T03:07:52.131Z,18.48
2017-10-16T03:10:19.806Z,22.52
2017-10-16T03:12:47.340Z,21.30
2017-10-16T03:15:14.879Z,24.70
2017-10-16T03:17:42.581Z,34.80
2017-10-16T03:20:10.106Z,20.10
2017-10-16T03:22:37.640Z,23.52
2017-10-16T03:25:05.361Z,19.02
2017-10-16T03:27:32.919Z,18.95
2017-10-16T03:30:00.580Z,23.40
2017-10-16T03:32:28.159Z,17.10
2017-10-16T03:34:55.802Z,23.20
2017-10-16T03:37:23.361Z,19.98
2017-10-16T03:39:51.329Z,17.98
2017-10-16T03:42:18.860Z,22.08
2017-10-16T03:44:46.394Z,23.23
2017-10-16T03:47:14.199Z,41.33
2017-10-16T03:49:41.719Z,18.77
2017-10-16T03:52:09.264Z,21.65
2017-10-16T03:54:36.823Z,21.85
2017-10-16T03:57:04.355Z,18.87
2017-10-16T03:59:31.904Z,17.55
2017-10-16T04:01:59.655Z,18.12
2017-10-16T04:04:27.197Z,19.42
2017-10-16T04:06:54.788Z,18.35
2017-10-16T04:09:22.560Z,19.35
2017-10-16T04:11:50.110Z,24.17
2017-10-16T04:14:17.669Z,22.10
2017-10-16T04:16:45.320Z,19.37
2017-10-16T04:19:12.847Z,22.83
2017-10-16T04:21:40.371Z,26.00
2017-10-16T04:24:08.104Z,19.33
2017-10-16T04:26:35.669Z,22.33
2017-10-16T04:29:03.228Z,17.87
2017-10-16T04:31:31.007Z,21.80
2017-10-16T04:33:58.536Z,25.23
2017-10-16T04:36:26.063Z,20.83
2017-10-16T04:38:53.771Z,19.65
2017-10-16T04:41:21.332Z,25.25
2017-10-16T04:43:48.890Z,24.85
2017-10-16T04:46:16.567Z,22.70
2017-10-16T04:48:44.134Z,29.02
2017-10-16T04:51:11.716Z,19.75
2017-10-16T04:53:39.567Z,17.17
2017-10-16T04:56:07.188Z,21.98
2017-10-16T04:58:34.772Z,20.30
2017-10-16T05:01:02.473Z,17.12
2017-10-16T05:03:30.140Z,19.62
2017-10-16T05:05:57.834Z,21.42
2017-10-16T05:08:25.665Z,20.48
2017-10-16T05:10:53.264Z,18.12
2017-10-16T05:13:20.820Z,23.12
2017-10-16T05:15:48.668Z,21.12
2017-10-16T05:18:16.208Z,23.90
2017-10-16T05:20:43.743Z,18.55
2017-10-16T05:23:11.532Z,18.27
2017-10-16T05:25:39.069Z,44.60
2017-10-16T05:28:06.621Z,19.48
2017-10-16T05:30:34.475Z,19.12
2017-10-16T05:33:02.031Z,23.77
2017-10-16T05:35:29.595Z,18.73
2017-10-16T05:37:57.459Z,20.98
2017-10-16T05:40:25.105Z,30.23
2017-10-16T05:42:52.655Z,30.25
2017-10-16T05:45:20.615Z,22.58
2017-10-16T05:47:48.143Z,30.48
2017-10-16T05:50:15.700Z,20.45
2017-10-16T05:52:43.400Z,31.73
2017-10-16T05:55:11.016Z,37.92
2017-10-16T05:57:38.563Z,27.02
2017-10-16T06:00:06.407Z,25.15
2017-10-16T06:02:34.004Z,25.20
2017-10-16T06:05:01.563Z,27.35
2017-10-16T06:07:29.270Z,24.73
2017-10-16T06:09:56.839Z,27.42
2017-10-16T06:12:24.382Z,25.58
2017-10-16T06:14:51.990Z,27.95
2017-10-16T06:17:19.546Z,22.52
2017-10-16T06:19:47.079Z,29.00
2017-10-16T06:22:14.951Z,26.35
2017-10-16T06:24:42.501Z,29.00
2017-10-16T06:27:10.061Z,30.50
2017-10-16T06:29:37.751Z,25.85
2017-10-16T06:32:05.346Z,25.15
2017-10-16T06:34:32.871Z,23.48
2017-10-16T06:37:00.639Z,26.60
2017-10-16T06:39:28.176Z,32.75
2017-10-16T06:41:55.716Z,25.35
2017-10-16T06:44:23.397Z,23.90
2017-10-16T06:46:51.008Z,26.35
2017-10-16T06:49:18.603Z,32.53
2017-10-16T06:51:46.474Z,20.62
2017-10-16T06:54:14.312Z,22.48
2017-10-16T06:56:41.897Z,30.25
2017-10-16T06:59:09.552Z,27.08
2017-10-16T07:01:37.122Z,24.85
2017-10-16T07:04:04.768Z,25.80
2017-10-16T07:06:32.443Z,22.33
2017-10-16T07:09:00.034Z,21.52
2017-10-16T07:11:27.591Z,16.05
2017-10-16T07:13:55.362Z,25.33
2017-10-16T07:16:22.903Z,25.12
2017-10-16T07:18:50.456Z,18.47
2017-10-16T07:21:18.437Z,24.53
2017-10-16T07:23:45.964Z,25.10
2017-10-16T07:26:13.524Z,27.60
2017-10-16T07:28:41.270Z,23.03
2017-10-16T07:31:08.804Z,26.33
2017-10-16T07:33:36.338Z,25.80
2017-10-16T07:36:04.364Z,24.10
2017-10-16T07:38:31.950Z,28.63
2017-10-16T07:40:59.621Z,19.00
2017-10-16T07:43:27.259Z,23.37
2017-10-16T07:45:54.851Z,21.60
2017-10-16T07:48:22.433Z,24.23
2017-10-16T07:50:50.269Z,24.47
2017-10-16T07:53:17.837Z,21.37
2017-10-16T07:55:45.391Z,28.87
2017-10-16T07:58:13.127Z,23.20
2017-10-16T08:00:40.690Z,21.03
2017-10-16T08:03:08.329Z,20.83
2017-10-16T08:05:36.040Z,32.97
2017-10-16T08:08:03.786Z,17.03
2017-10-16T08:10:31.328Z,17.60
2017-10-16T08:12:59.098Z,26.67
2017-10-16T08:15:26.683Z,20.83
2017-10-16T08:17:54.223Z,18.60
2017-10-16T08:20:21.987Z,18.93
2017-10-16T08:22:49.536Z,20.50
2017-10-16T08:25:17.097Z,24.83
2017-10-16T08:27:44.994Z,17.47
2017-10-16T08:30:12.524Z,16.57
2017-10-16T08:32:40.126Z,21.50
2017-10-16T08:35:07.972Z,20.30
2017-10-16T08:37:35.646Z,17.33
2017-10-16T08:40:03.171Z,22.00
2017-10-16T08:42:31.456Z,20.40
2017-10-16T08:44:59.008Z,13.90
2017-10-16T08:47:26.548Z,22.23
2017-10-16T08:49:54.403Z,16.53
2017-10-16T08:52:23.165Z,33.50
2017-10-16T08:54:52.517Z,16.93
2017-10-16T08:57:20.322Z,18.90
2017-10-16T08:59:48.174Z,16.23
2017-10-16T09:02:15.868Z,19.67
2017-10-16T09:04:45.010Z,15.43
2017-10-16T09:07:12.953Z,13.47
2017-10-16T09:09:40.763Z,23.43
2017-10-16T09:12:08.865Z,14.63
2017-10-16T09:14:36.983Z,26.33
2017-10-16T09:17:04.655Z,10.50
2017-10-16T09:19:32.628Z,18.83
2017-10-16T09:22:00.695Z,17.47
2017-10-16T09:24:30.292Z,11.67
2017-10-16T09:26:59.061Z,12.63
2017-10-16T09:29:26.844Z,14.93
2017-10-16T09:31:54.410Z,16.87
2017-10-16T09:34:23.397Z,19.07
2017-10-16T09:36:51.385Z,12.97
2017-10-16T09:39:19.848Z,11.83
2017-10-16T09:41:50.197Z,9.43
2017-10-16T09:44:18.140Z,11.67
2017-10-16T09:46:47.192Z,11.63
2017-10-16T09:49:15.107Z,14.17
2017-10-16T09:51:53.213Z,13.30
2017-10-16T09:54:21.290Z,9.93
2017-10-16T09:56:48.940Z,10.73
2017-10-16T09:59:16.892Z,8.40
2017-10-16T10:01:44.811Z,14.67
2017-10-16T10:04:12.546Z,14.03
2017-10-16T10:06:41.082Z,7.33
2017-10-16T10:09:09.909Z,8.30
2017-10-16T10:11:37.775Z,6.80
2017-10-16T10:14:05.541Z,10.23
2017-10-16T10:16:34.032Z,14.20
2017-10-16T10:19:01.808Z,12.10
2017-10-16T10:21:29.469Z,14.80
2017-10-16T10:23:57.419Z,11.17
2017-10-16T10:26:25.178Z,11.10
2017-10-16T10:28:53.052Z,12.20
2017-10-16T10:31:21.855Z,13.70
2017-10-16T10:33:50.046Z,10.80
2017-10-16T10:36:17.884Z,19.67
2017-10-16T10:38:45.771Z,9.60
2017-10-16T10:41:15.142Z,8.60
2017-10-16T10:43:42.803Z,9.77
2017-10-16T10:46:11.022Z,9.43
2017-10-16T10:48:38.588Z,6.40
2017-10-16T10:51:06.375Z,7.20
2017-10-16T10:53:36.523Z,5.78
2017-10-16T10:56:04.236Z,11.15
2017-10-16T10:58:31.826Z,14.77
2017-10-16T11:01:00.020Z,9.63
2017-10-16T11:03:28.089Z,6.07
2017-10-16T11:05:55.877Z,14.07
2017-10-16T11:08:23.729Z,10.02
2017-10-16T11:10:51.564Z,8.45
2017-10-16T11:13:19.349Z,8.10
2017-10-16T11:15:47.634Z,6.87
2017-10-16T11:18:15.595Z,7.72
2017-10-16T11:20:43.361Z,9.00
2017-10-16T11:23:12.046Z,16.73
2017-10-16T11:25:41.035Z,9.63
2017-10-16T11:28:09.723Z,8.70
2017-10-16T11:30:37.697Z,7.37
2017-10-16T11:33:05.430Z,5.00
2017-10-16T11:35:34.902Z,8.15
2017-10-16T11:38:02.941Z,6.35
2017-10-16T11:40:30.451Z,4.45
2017-10-16T11:42:59.230Z,7.07
2017-10-16T11:45:27.450Z,6.80
2017-10-16T11:47:55.521Z,6.90
2017-10-16T11:50:25.908Z,4.53
2017-10-16T11:52:55.684Z,5.60
2017-10-16T11:55:25.090Z,9.07
2017-10-16T11:57:53.825Z,5.60
2017-10-16T12:00:23.342Z,14.13
2017-10-16T12:02:51.674Z,7.43
2017-10-16T12:05:19.559Z,8.95
2017-10-16T12:07:47.465Z,6.10
2017-10-16T12:10:15.305Z,7.78
2017-10-16T12:12:43.291Z,14.55
2017-10-16T12:15:11.984Z,7.95
2017-10-16T12:17:39.850Z,12.37
2017-10-16T12:20:08.121Z,9.40
2017-10-16T12:22:35.711Z,16.40
2017-10-16T12:25:03.275Z,8.93
2017-10-16T12:27:31.458Z,14.03
2017-10-16T12:29:58.994Z,15.00
2017-10-16T12:32:26.850Z,15.97
2017-10-16T12:34:55.065Z,25.17
2017-10-16T12:37:25.171Z,9.90
2017-10-16T12:39:52.907Z,58.00
2017-10-16T12:42:20.972Z,26.03
2017-10-16T12:44:49.659Z,14.83
2017-10-16T12:47:17.326Z,15.63
2017-10-16T12:49:45.220Z,17.70
2017-10-16T12:52:12.799Z,16.43
2017-10-16T12:54:40.715Z,16.93
2017-10-16T12:57:08.394Z,18.80
2017-10-16T12:59:36.100Z,15.80
2017-10-16T13:02:03.801Z,20.03
2017-10-16T13:04:31.770Z,17.37
2017-10-16T13:07:00.252Z,19.93
2017-10-16T13:09:28.014Z,19.00
2017-10-16T13:11:56.297Z,18.30
2017-10-16T13:14:23.971Z,29.17
2017-10-16T13:16:52.239Z,14.53
2017-10-16T13:19:20.404Z,23.73
2017-10-16T13:21:48.206Z,10.57
2017-10-16T13:24:17.775Z,15.70
2017-10-16T13:26:46.059Z,16.10
2017-10-16T13:29:13.611Z,13.60
2017-10-16T13:31:41.208Z,24.53
2017-10-16T13:34:09.891Z,17.67
2017-10-16T13:36:37.956Z,15.30
2017-10-16T13:39:07.346Z,18.60
2017-10-16T13:41:35.289Z,13.60
2017-10-16T13:44:02.943Z,15.13
2017-10-16T13:46:30.722Z,17.13
2017-10-16T13:48:58.908Z,15.93
2017-10-16T13:51:26.457Z,16.07
2017-10-16T13:53:54.117Z,26.43
2017-10-16T13:56:21.814Z,15.30
2017-10-16T13:58:51.268Z,14.37
2017-10-16T14:01:18.942Z,20.77
2017-10-16T14:03:47.118Z,12.57
2017-10-16T14:06:14.904Z,14.13
2017-10-16T14:08:42.988Z,17.93
2017-10-16T14:11:11.713Z,13.67
2017-10-16T14:13:39.743Z,27.47
2017-10-16T14:16:07.883Z,20.30
2017-10-16T14:18:36.669Z,15.47
2017-10-16T14:21:05.355Z,18.00
2017-10-16T14:23:34.044Z,13.50
2017-10-16T14:26:02.125Z,13.10
2017-10-16T14:28:29.655Z,31.27
2017-10-16T14:30:57.183Z,17.93
2017-10-16T14:33:25.018Z,19.70
2017-10-16T14:35:52.560Z,17.50
2017-10-16T14:38:20.522Z,23.03
2017-10-16T14:40:48.261Z,17.20
2017-10-16T14:43:15.780Z,14.13
2017-10-16T14:45:43.319Z,12.20
2017-10-16T14:48:10.879Z,15.20
2017-10-16T14:50:38.454Z,23.03
2017-10-16T14:53:06.049Z,16.43
2017-10-16T14:55:33.641Z,14.63
2017-10-16T14:58:01.200Z,12.70
2017-10-16T15:00:28.963Z,15.90
2017-10-16T15:02:56.544Z,12.97
2017-10-16T15:05:24.212Z,22.33
2017-10-16T15:07:51.754Z,22.97
2017-10-16T15:10:19.508Z,17.07
2017-10-16T15:12:47.068Z,13.43
2017-10-16T15:15:14.589Z,17.97
2017-10-16T15:17:42.185Z,18.30
2017-10-16T15:20:09.787Z,14.60
2017-10-16T15:22:37.366Z,15.87
2017-10-16T15:25:05.019Z,20.30
2017-10-16T15:27:32.559Z,23.03
2017-10-16T15:30:00.084Z,13.60
2017-10-16T15:32:28.052Z,13.93
2017-10-16T15:34:55.715Z,21.93
2017-10-16T15:37:23.280Z,17.20
2017-10-16T15:39:51.062Z,21.43
2017-10-16T15:42:19.927Z,13.70
2017-10-16T15:44:47.495Z,16.53
2017-10-16T15:47:16.380Z,15.57
2017-10-16T15:49:44.038Z,24.40
2017-10-16T15:52:11.597Z,24.03
2017-10-16T15:54:39.451Z,31.67
2017-10-16T15:57:07.126Z,25.43
2017-10-16T15:59:34.813Z,14.97
2017-10-16T16:02:03.268Z,18.53
2017-10-16T16:04:30.899Z,26.53
2017-10-16T16:06:59.246Z,30.93
2017-10-16T16:09:27.481Z,17.13
2017-10-16T16:11:55.038Z,22.13
2017-10-16T16:14:22.814Z,26.77
2017-10-16T16:16:50.720Z,25.37
2017-10-16T16:19:18.538Z,27.60
2017-10-16T16:21:46.424Z,21.90
2017-10-16T16:24:14.271Z,31.27
2017-10-16T16:26:41.998Z,20.90
2017-10-16T16:29:09.565Z,24.13
2017-10-16T16:31:37.470Z,16.00
2017-10-16T16:34:05.227Z,22.67
2017-10-16T16:36:32.885Z,20.23
2017-10-16T16:39:00.884Z,25.60
2017-10-16T16:41:28.619Z,19.33
2017-10-16T16:43:56.404Z,23.63
2017-10-16T16:46:24.143Z,22.70
2017-10-16T16:48:51.814Z,31.30
2017-10-16T16:51:19.468Z,24.53
2017-10-16T16:53:47.542Z,29.97
2017-10-16T16:56:16.144Z,24.40
2017-10-16T16:58:44.502Z,26.93
2017-10-16T17:01:12.516Z,21.33
2017-10-16T17:03:40.455Z,23.83
2017-10-16T17:06:08.224Z,33.83
2017-10-16T17:08:36.501Z,33.53
2017-10-16T17:11:04.528Z,27.37
2017-10-16T17:13:33.244Z,34.93
2017-10-16T17:16:01.631Z,25.53
2017-10-16T17:18:29.487Z,22.20
2017-10-16T17:20:58.269Z,32.10
2017-10-16T17:23:26.340Z,24.07
2017-10-16T17:25:54.317Z,28.03
2017-10-16T17:28:22.278Z,30.00
2017-10-16T17:30:50.616Z,38.50
2017-10-16T17:33:18.932Z,40.83
2017-10-16T17:35:46.770Z,30.70
2017-10-16T17:38:14.579Z,28.33
2017-10-16T17:40:42.533Z,27.07
2017-10-16T17:43:10.421Z,22.43
2017-10-16T17:45:38.468Z,25.63
2017-10-16T17:48:07.277Z,27.40
2017-10-16T17:50:35.745Z,23.07
2017-10-16T17:53:03.706Z,30.20
2017-10-16T17:55:31.674Z,23.53
2017-10-16T17:58:00.157Z,33.80
2017-10-16T18:00:28.159Z,23.10
2017-10-16T18:02:56.093Z,25.60
2017-10-16T18:05:23.959Z,29.07
2017-10-16T18:07:52.051Z,22.33
2017-10-16T18:10:20.001Z,34.80
2017-10-16T18:12:47.867Z,19.23
2017-10-16T18:15:15.917Z,31.30
2017-10-16T18:17:43.700Z,29.93
2017-10-16T18:20:12.284Z,27.83
2017-10-16T18:22:40.560Z,31.57
2017-10-16T18:25:08.462Z,39.53
2017-10-16T18:27:36.702Z,26.13
2017-10-16T18:30:06.104Z,18.93
2017-10-16T18:32:34.763Z,25.17
2017-10-16T18:35:03.855Z,31.50
2017-10-16T18:37:31.922Z,22.93
2017-10-16T18:39:59.823Z,32.80
2017-10-16T18:42:27.741Z,37.77
2017-10-16T18:44:55.982Z,28.40
2017-10-16T18:47:23.833Z,36.67
2017-10-16T18:49:51.699Z,31.23
2017-10-16T18:52:20.691Z,35.73
2017-10-16T18:54:49.172Z,22.77
2017-10-16T18:57:17.109Z,24.60
2017-10-16T18:59:46.360Z,26.40
2017-10-16T19:02:14.432Z,24.93
2017-10-16T19:04:42.276Z,26.10
2017-10-16T19:07:10.401Z,29.90
2017-10-16T19:09:38.768Z,24.63
2017-10-16T19:12:06.796Z,38.23
2017-10-16T19:14:35.381Z,23.50
2017-10-16T19:17:04.272Z,35.47
2017-10-16T19:19:32.443Z,24.70
2017-10-16T19:22:00.617Z,21.53
2017-10-16T19:24:29.099Z,29.13
2017-10-16T19:26:56.964Z,29.17
2017-10-16T19:29:25.217Z,35.93
2017-10-16T19:31:53.312Z,39.47
2017-10-16T19:34:21.139Z,43.13
2017-10-16T19:36:49.354Z,44.23
2017-10-16T19:39:17.221Z,38.87
2017-10-16T19:41:45.290Z,42.23
2017-10-16T19:44:13.438Z,32.13
2017-10-16T19:46:41.540Z,24.77
2017-10-16T19:49:09.508Z,29.27
2017-10-16T19:51:37.677Z,33.30
2017-10-16T19:54:05.544Z,27.90
2017-10-16T19:56:33.409Z,41.70
2017-10-16T19:59:01.685Z,30.23
2017-10-16T20:01:30.449Z,28.17
2017-10-16T20:03:58.338Z,30.83
2017-10-16T20:06:26.513Z,35.03
2017-10-16T20:08:55.120Z,40.17
2017-10-16T20:11:23.168Z,34.87
2017-10-16T20:13:51.342Z,30.80
2017-10-16T20:16:19.310Z,35.07
2017-10-16T20:18:47.380Z,27.57
2017-10-16T20:21:15.457Z,32.20
2017-10-16T20:23:43.276Z,35.30
2017-10-16T20:26:11.287Z,27.93
2017-10-16T20:28:39.466Z,27.80
2017-10-16T20:31:07.453Z,39.27
2017-10-16T20:33:35.500Z,31.47
2017-10-16T20:36:03.469Z,31.27
2017-10-16T20:38:31.223Z,32.33
2017-10-16T20:40:59.104Z,31.70
2017-10-16T20:43:27.437Z,31.83
2017-10-16T20:45:56.266Z,25.30
2017-10-16T20:48:24.143Z,26.37
2017-10-16T20:50:52.101Z,35.53
2017-10-16T20:53:19.862Z,30.47
2017-10-16T20:55:47.937Z,27.67
2017-10-16T20:58:16.211Z,24.23
2017-10-16T21:00:44.180Z,40.43
2017-10-16T21:03:11.947Z,22.50
2017-10-16T21:05:39.678Z,28.90
2017-10-16T21:08:07.371Z,29.83
2017-10-16T21:10:35.238Z,40.10
2017-10-16T21:13:03.205Z,33.77
2017-10-16T21:15:30.788Z,28.50
2017-10-16T21:17:58.447Z,31.83
2017-10-16T21:20:26.318Z,27.07
2017-10-16T21:22:53.891Z,24.20
2017-10-16T21:25:21.675Z,24.03
2017-10-16T21:27:49.505Z,24.27
2017-10-16T21:30:17.041Z,28.87
2017-10-16T21:32:44.701Z,26.93
2017-10-16T21:35:12.312Z,27.37
2017-10-16T21:37:39.935Z,18.47
2017-10-16T21:40:07.455Z,30.20
2017-10-16T21:42:35.395Z,24.87
2017-10-16T21:45:06.704Z,28.73
2017-10-16T21:47:34.235Z,29.13
2017-10-16T21:50:02.003Z,24.93
2017-10-16T21:52:29.628Z,35.03
2017-10-16T21:54:57.326Z,27.70
2017-10-16T21:57:25.194Z,24.23
2017-10-16T21:59:52.760Z,25.60
2017-10-16T22:02:20.279Z,24.80
2017-10-16T22:04:48.072Z,24.53
2017-10-16T22:07:15.615Z,24.80
2017-10-16T22:09:43.143Z,30.10
2017-10-16T22:12:10.854Z,29.73
2017-10-16T22:14:38.376Z,29.03
2017-10-16T22:17:05.924Z,26.77
2017-10-16T22:19:33.734Z,27.10
2017-10-16T22:22:01.319Z,26.33
2017-10-16T22:24:29.280Z,35.67
2017-10-16T22:26:56.933Z,27.77
2017-10-16T22:29:24.461Z,29.27
2017-10-16T22:31:51.990Z,25.53
2017-10-16T22:34:19.703Z,33.57
2017-10-16T22:36:47.228Z,30.53
2017-10-16T22:39:14.771Z,32.33
2017-10-16T22:41:42.554Z,26.90
2017-10-16T22:44:10.084Z,38.23
2017-10-16T22:46:37.615Z,33.17
2017-10-16T22:49:05.467Z,36.37
2017-10-16T22:51:32.992Z,39.00
2017-10-16T22:57:05.233Z,29.03
2017-10-16T22:59:32.979Z,26.70
2017-10-16T23:02:00.507Z,24.83
2017-10-16T23:04:28.064Z,25.70
2017-10-16T23:06:55.859Z,25.90
2017-10-16T23:09:23.419Z,26.43
2017-10-16T23:11:50.940Z,27.80
2017-10-16T23:14:18.513Z,25.20
2017-10-16T23:16:46.035Z,25.40
2017-10-16T23:19:13.590Z,30.60
2017-10-16T23:21:41.244Z,19.90
2017-10-16T23:24:08.895Z,26.00
2017-10-16T23:26:36.411Z,34.57
2017-10-16T23:29:04.220Z,29.03
2017-10-16T23:31:31.759Z,31.73
2017-10-16T23:33:59.275Z,31.73
2017-10-16T23:36:27.119Z,21.20
2017-10-16T23:38:54.744Z,28.30
2017-10-16T23:41:22.835Z,20.07
2017-10-16T23:43:50.681Z,32.30
2017-10-16T23:46:18.216Z,35.60
2017-10-16T23:48:45.731Z,19.13
2017-10-16T23:51:13.432Z,21.47
2017-10-16T23:53:40.955Z,29.77
2017-10-16T23:56:08.479Z,15.53
2017-10-16T23:58:36.156Z,17.60
